Boston, Massachusetts
Traffic Map
Current Weather Conditions
Boston, Massachusetts
Few Clouds
Few Clouds
18°
Feels Like: 18°
Wind Chill: 18° Ceiling: Unl
Heat Index: 18° Visibility: 10mi
Dew Point: Wind: 9mph
Humidity: 38% Direction: 280° (W)
Pressure: 29.6in Gusts: 0mph
Raw Report DataKBOS 251954Z 28008KT 10SM FEW250 18/03 A2960 RMK AO2 SLP023 T01780033
Traffic Incident Summary
Active as of:
Severity:
Category:
InformationThere was an issue retrieving the traffic information for this location. Please try a different location or try again shortly.
Advertisements
Track Severe Weather on mobile